<?xml version="1.0" encoding="UTF-8" standalone="no" ?><gpx xmlns="http://www.topografix.com/GPX/1/1" xmlns:gpxx="http://www.garmin.com/xmlschemas/GpxExtensions/v3" xmlns:wptx1="http://www.garmin.com/xmlschemas/WaypointExtension/v1" xmlns:gpxtpx="http://www.garmin.com/xmlschemas/TrackPointExtension/v1" creator="Dakota 20" version="1.1" xmlns:xsi="http://www.w3.org/2001/XMLSchema-instance" xsi:schemaLocation="http://www.topografix.com/GPX/1/1 http://www.topografix.com/GPX/1/1/gpx.xsd http://www.garmin.com/xmlschemas/GpxExtensions/v3 http://www8.garmin.com/xmlschemas/GpxExtensionsv3.xsd http://www.garmin.com/xmlschemas/WaypointExtension/v1 http://www8.garmin.com/xmlschemas/WaypointExtensionv1.xsd http://www.garmin.com/xmlschemas/TrackPointExtension/v1 http://www.garmin.com/xmlschemas/TrackPointExtensionv1.xsd"><metadata><link href="http://www.garmin.com"><text>Garmin International</text></link><time>2017-04-12T13:53:41Z</time></metadata><trk><name>Current Track: 12 APR 2017 09:58</name><extensions><gpxx:TrackExtension><gpxx:DisplayColor>Cyan</gpxx:DisplayColor></gpxx:TrackExtension></extensions><trkseg><trkpt lat="51.9907978456" lon="-2.1614344139"><ele>19.84</ele><time>2017-04-12T08:58:36Z</time></trkpt><trkpt lat="51.9908074848" lon="-2.1614298876"><ele>18.88</ele><time>2017-04-12T08:58:41Z</time></trkpt><trkpt lat="51.9909500610" lon="-2.1612805221"><ele>19.36</ele><time>2017-04-12T08:58:56Z</time></trkpt><trkpt lat="51.9910276774" lon="-2.1611397061"><ele>19.84</ele><time>2017-04-12T08:59:06Z</time></trkpt><trkpt lat="51.9911525678" lon="-2.1609034203"><ele>19.84</ele><time>2017-04-12T08:59:24Z</time></trkpt><trkpt lat="51.9911652245" lon="-2.1606842335"><ele>19.84</ele><time>2017-04-12T08:59:42Z</time></trkpt><trkpt lat="51.9911660627" lon="-2.1606760193"><ele>19.36</ele><time>2017-04-12T08:59:43Z</time></trkpt><trkpt lat="51.9911486283" lon="-2.1605958045"><ele>19.36</ele><time>2017-04-12T08:59:49Z</time></trkpt><trkpt lat="51.9911217224" lon="-2.1603478678"><ele>18.40</ele><time>2017-04-12T09:00:09Z</time></trkpt><trkpt lat="51.9912865944" lon="-2.1599061415"><ele>18.40</ele><time>2017-04-12T09:00:28Z</time></trkpt><trkpt lat="51.9912789669" lon="-2.1598841809"><ele>18.88</ele><time>2017-04-12T09:00:29Z</time></trkpt><trkpt lat="51.9912655558" lon="-2.1598566882"><ele>18.40</ele><time>2017-04-12T09:00:37Z</time></trkpt><trkpt lat="51.9912352134" lon="-2.1598292794"><ele>18.40</ele><time>2017-04-12T09:00:40Z</time></trkpt><trkpt lat="51.9912301004" lon="-2.1597786527"><ele>18.40</ele><time>2017-04-12T09:00:43Z</time></trkpt><trkpt lat="51.9912032783" lon="-2.1597034670"><ele>17.92</ele><time>2017-04-12T09:00:47Z</time></trkpt><trkpt lat="51.9912351295" lon="-2.1595103480"><ele>17.92</ele><time>2017-04-12T09:00:56Z</time></trkpt><trkpt lat="51.9911266677" lon="-2.1592924185"><ele>17.44</ele><time>2017-04-12T09:01:13Z</time></trkpt><trkpt lat="51.9909985922" lon="-2.1591346711"><ele>17.92</ele><time>2017-04-12T09:01:29Z</time></trkpt><trkpt lat="51.9908891246" lon="-2.1589739900"><ele>17.44</ele><time>2017-04-12T09:01:45Z</time></trkpt><trkpt lat="51.9907721132" lon="-2.1588211879"><ele>16.96</ele><time>2017-04-12T09:02:00Z</time></trkpt><trkpt lat="51.9906887133" lon="-2.1586767677"><ele>16.96</ele><time>2017-04-12T09:02:15Z</time></trkpt><trkpt lat="51.9905533455" lon="-2.1584850736"><ele>16.48</ele><time>2017-04-12T09:02:32Z</time></trkpt><trkpt lat="51.9904170558" lon="-2.1583340317"><ele>16.96</ele><time>2017-04-12T09:02:51Z</time></trkpt><trkpt lat="51.9903570414" lon="-2.1583071258"><ele>16.00</ele><time>2017-04-12T09:02:58Z</time></trkpt><trkpt lat="51.9902189914" lon="-2.1583051141"><ele>16.96</ele><time>2017-04-12T09:03:12Z</time></trkpt><trkpt lat="51.9902049098" lon="-2.1582972351"><ele>16.96</ele><time>2017-04-12T09:03:18Z</time></trkpt><trkpt lat="51.9901857991" lon="-2.1583022643"><ele>16.48</ele><time>2017-04-12T09:03:20Z</time></trkpt><trkpt lat="51.9900100306" lon="-2.1583751868"><ele>16.48</ele><time>2017-04-12T09:03:39Z</time></trkpt><trkpt lat="51.9898573123" lon="-2.1583454311"><ele>16.48</ele><time>2017-04-12T09:03:55Z</time></trkpt><trkpt lat="51.9897294044" lon="-2.1583342832"><ele>15.52</ele><time>2017-04-12T09:04:09Z</time></trkpt><trkpt lat="51.9895552285" lon="-2.1583101433"><ele>16.00</ele><time>2017-04-12T09:04:28Z</time></trkpt><trkpt lat="51.9893928710" lon="-2.1582174394"><ele>15.52</ele><time>2017-04-12T09:04:44Z</time></trkpt><trkpt lat="51.9892238919" lon="-2.1581438463"><ele>15.52</ele><time>2017-04-12T09:05:01Z</time></trkpt><trkpt lat="51.9891160168" lon="-2.1581197903"><ele>15.04</ele><time>2017-04-12T09:05:12Z</time></trkpt><trkpt lat="51.9889752846" lon="-2.1581603587"><ele>15.04</ele><time>2017-04-12T09:05:30Z</time></trkpt><trkpt lat="51.9888762105" lon="-2.1581974067"><ele>15.04</ele><time>2017-04-12T09:05:41Z</time></trkpt><trkpt lat="51.9887222350" lon="-2.1582301799"><ele>15.52</ele><time>2017-04-12T09:05:58Z</time></trkpt><trkpt lat="51.9886881206" lon="-2.1582344547"><ele>15.04</ele><time>2017-04-12T09:06:04Z</time></trkpt><trkpt lat="51.9885271881" lon="-2.1582786273"><ele>15.52</ele><time>2017-04-12T09:06:22Z</time></trkpt><trkpt lat="51.9883426186" lon="-2.1583379712"><ele>15.52</ele><time>2017-04-12T09:06:40Z</time></trkpt><trkpt lat="51.9882041495" lon="-2.1583310142"><ele>15.04</ele><time>2017-04-12T09:06:57Z</time></trkpt><trkpt lat="51.9880301412" lon="-2.1583608538"><ele>15.04</ele><time>2017-04-12T09:07:15Z</time></trkpt><trkpt lat="51.9878840446" lon="-2.1584258135"><ele>15.52</ele><time>2017-04-12T09:07:37Z</time></trkpt><trkpt lat="51.9878331665" lon="-2.1584504563"><ele>16.00</ele><time>2017-04-12T09:07:52Z</time></trkpt><trkpt lat="51.9878350943" lon="-2.1584151685"><ele>15.52</ele><time>2017-04-12T09:08:09Z</time></trkpt><trkpt lat="51.9877585676" lon="-2.1584123187"><ele>15.04</ele><time>2017-04-12T09:08:22Z</time></trkpt><trkpt lat="51.9876252953" lon="-2.1584595926"><ele>16.48</ele><time>2017-04-12T09:08:39Z</time></trkpt><trkpt lat="51.9874797016" lon="-2.1584566589"><ele>16.96</ele><time>2017-04-12T09:08:55Z</time></trkpt><trkpt lat="51.9873118959" lon="-2.1585038491"><ele>17.44</ele><time>2017-04-12T09:09:11Z</time></trkpt><trkpt lat="51.9872764405" lon="-2.1586954594"><ele>18.40</ele><time>2017-04-12T09:09:27Z</time></trkpt><trkpt lat="51.9872530550" lon="-2.1588090342"><ele>18.40</ele><time>2017-04-12T09:09:32Z</time></trkpt><trkpt lat="51.9871897716" lon="-2.1592443064"><ele>19.84</ele><time>2017-04-12T09:09:52Z</time></trkpt><trkpt lat="51.9872167613" lon="-2.1591298934"><ele>19.36</ele><time>2017-04-12T09:10:13Z</time></trkpt><trkpt lat="51.9872103073" lon="-2.1591051668"><ele>19.84</ele><time>2017-04-12T09:10:15Z</time></trkpt><trkpt lat="51.9870899431" lon="-2.1589441504"><ele>18.88</ele><time>2017-04-12T09:10:29Z</time></trkpt><trkpt lat="51.9870335329" lon="-2.1588997263"><ele>19.36</ele><time>2017-04-12T09:10:33Z</time></trkpt><trkpt lat="51.9869461935" lon="-2.1587812062"><ele>18.88</ele><time>2017-04-12T09:10:39Z</time></trkpt><trkpt lat="51.9867265038" lon="-2.1586059406"><ele>19.84</ele><time>2017-04-12T09:10:54Z</time></trkpt><trkpt lat="51.9866321236" lon="-2.1585528832"><ele>19.84</ele><time>2017-04-12T09:11:04Z</time></trkpt><trkpt lat="51.9864964206" lon="-2.1585368738"><ele>20.81</ele><time>2017-04-12T09:11:17Z</time></trkpt><trkpt lat="51.9863577001" lon="-2.1585269831"><ele>20.81</ele><time>2017-04-12T09:11:35Z</time></trkpt><trkpt lat="51.9862867054" lon="-2.1585839801"><ele>20.81</ele><time>2017-04-12T09:11:51Z</time></trkpt><trkpt lat="51.9861861225" lon="-2.1585846506"><ele>20.32</ele><time>2017-04-12T09:12:09Z</time></trkpt><trkpt lat="51.9860631600" lon="-2.1585137397"><ele>20.81</ele><time>2017-04-12T09:12:28Z</time></trkpt><trkpt lat="51.9860442169" lon="-2.1585041005"><ele>20.32</ele><time>2017-04-12T09:12:31Z</time></trkpt><trkpt lat="51.9858731423" lon="-2.1583479457"><ele>20.81</ele><time>2017-04-12T09:12:47Z</time></trkpt><trkpt lat="51.9856682047" lon="-2.1581380628"><ele>21.29</ele><time>2017-04-12T09:13:07Z</time></trkpt><trkpt lat="51.9855523668" lon="-2.1580731031"><ele>21.29</ele><time>2017-04-12T09:13:23Z</time></trkpt><trkpt lat="51.9854063541" lon="-2.1579868533"><ele>22.25</ele><time>2017-04-12T09:13:40Z</time></trkpt><trkpt lat="51.9852765184" lon="-2.1579436027"><ele>22.73</ele><time>2017-04-12T09:13:58Z</time></trkpt><trkpt lat="51.9851091318" lon="-2.1578408405"><ele>22.25</ele><time>2017-04-12T09:14:14Z</time></trkpt><trkpt lat="51.9849176053" lon="-2.1578118391"><ele>20.81</ele><time>2017-04-12T09:14:32Z</time></trkpt><trkpt lat="51.9847372267" lon="-2.1577509865"><ele>20.81</ele><time>2017-04-12T09:14:48Z</time></trkpt><trkpt lat="51.9846968260" lon="-2.1577636432"><ele>20.81</ele><time>2017-04-12T09:14:52Z</time></trkpt><trkpt lat="51.9845975842" lon="-2.1577573568"><ele>20.32</ele><time>2017-04-12T09:15:03Z</time></trkpt><trkpt lat="51.9843895454" lon="-2.1576915588"><ele>19.84</ele><time>2017-04-12T09:15:19Z</time></trkpt><trkpt lat="51.9842326362" lon="-2.1575531736"><ele>19.84</ele><time>2017-04-12T09:15:36Z</time></trkpt><trkpt lat="51.9841879606" lon="-2.1575048100"><ele>20.32</ele><time>2017-04-12T09:15:52Z</time></trkpt><trkpt lat="51.9841332268" lon="-2.1575390920"><ele>19.84</ele><time>2017-04-12T09:16:10Z</time></trkpt><trkpt lat="51.9840422831" lon="-2.1577337198"><ele>20.32</ele><time>2017-04-12T09:16:28Z</time></trkpt><trkpt lat="51.9839218352" lon="-2.1579104103"><ele>19.84</ele><time>2017-04-12T09:16:44Z</time></trkpt><trkpt lat="51.9837885629" lon="-2.1581339557"><ele>20.32</ele><time>2017-04-12T09:17:02Z</time></trkpt><trkpt lat="51.9837811869" lon="-2.1581521444"><ele>20.32</ele><time>2017-04-12T09:17:03Z</time></trkpt><trkpt lat="51.9836862199" lon="-2.1582815610"><ele>20.81</ele><time>2017-04-12T09:17:21Z</time></trkpt><trkpt lat="51.9836469088" lon="-2.1584994067"><ele>20.32</ele><time>2017-04-12T09:17:36Z</time></trkpt><trkpt lat="51.9836722221" lon="-2.1585548110"><ele>20.81</ele><time>2017-04-12T09:17:40Z</time></trkpt><trkpt lat="51.9837992080" lon="-2.1587535460"><ele>19.84</ele><time>2017-04-12T09:17:58Z</time></trkpt><trkpt lat="51.9839345757" lon="-2.1589103714"><ele>19.84</ele><time>2017-04-12T09:18:13Z</time></trkpt><trkpt lat="51.9840577897" lon="-2.1590928454"><ele>19.84</ele><time>2017-04-12T09:18:30Z</time></trkpt><trkpt lat="51.9840686023" lon="-2.1591069270"><ele>19.84</ele><time>2017-04-12T09:18:33Z</time></trkpt><trkpt lat="51.9840857852" lon="-2.1591458190"><ele>19.36</ele><time>2017-04-12T09:18:36Z</time></trkpt><trkpt lat="51.9841767289" lon="-2.1593019739"><ele>19.36</ele><time>2017-04-12T09:18:51Z</time></trkpt><trkpt lat="51.9842009526" lon="-2.1595766488"><ele>18.88</ele><time>2017-04-12T09:19:08Z</time></trkpt><trkpt lat="51.9842796586" lon="-2.1597177163"><ele>18.40</ele><time>2017-04-12T09:19:25Z</time></trkpt><trkpt lat="51.9843906350" lon="-2.1598160360"><ele>17.44</ele><time>2017-04-12T09:19:40Z</time></trkpt><trkpt lat="51.9844207261" lon="-2.1598992683"><ele>18.40</ele><time>2017-04-12T09:19:56Z</time></trkpt><trkpt lat="51.9843990169" lon="-2.1599338017"><ele>17.92</ele><time>2017-04-12T09:20:09Z</time></trkpt><trkpt lat="51.9843866955" lon="-2.1599388309"><ele>17.92</ele><time>2017-04-12T09:20:10Z</time></trkpt><trkpt lat="51.9843161199" lon="-2.1599952411"><ele>18.40</ele><time>2017-04-12T09:20:18Z</time></trkpt><trkpt lat="51.9842127711" lon="-2.1601441037"><ele>17.44</ele><time>2017-04-12T09:20:31Z</time></trkpt><trkpt lat="51.9840542693" lon="-2.1603106521"><ele>17.92</ele><time>2017-04-12T09:20:47Z</time></trkpt><trkpt lat="51.9839110225" lon="-2.1603883523"><ele>17.44</ele><time>2017-04-12T09:21:02Z</time></trkpt><trkpt lat="51.9837327395" lon="-2.1605127398"><ele>17.92</ele><time>2017-04-12T09:21:21Z</time></trkpt><trkpt lat="51.9835610781" lon="-2.1606362052"><ele>16.96</ele><time>2017-04-12T09:21:37Z</time></trkpt><trkpt lat="51.9833718147" lon="-2.1606217884"><ele>16.48</ele><time>2017-04-12T09:21:58Z</time></trkpt><trkpt lat="51.9833229482" lon="-2.1606848203"><ele>16.48</ele><time>2017-04-12T09:22:06Z</time></trkpt><trkpt lat="51.9831199385" lon="-2.1607071999"><ele>15.52</ele><time>2017-04-12T09:22:27Z</time></trkpt><trkpt lat="51.9829434156" lon="-2.1607833914"><ele>15.52</ele><time>2017-04-12T09:22:47Z</time></trkpt><trkpt lat="51.9828050304" lon="-2.1609699726"><ele>14.56</ele><time>2017-04-12T09:23:06Z</time></trkpt><trkpt lat="51.9828131609" lon="-2.1611889079"><ele>14.08</ele><time>2017-04-12T09:23:23Z</time></trkpt><trkpt lat="51.9828141667" lon="-2.1612323262"><ele>14.08</ele><time>2017-04-12T09:23:43Z</time></trkpt><trkpt lat="51.9828722533" lon="-2.1613431349"><ele>14.08</ele><time>2017-04-12T09:24:01Z</time></trkpt><trkpt lat="51.9828975666" lon="-2.1613908280"><ele>14.08</ele><time>2017-04-12T09:24:05Z</time></trkpt><trkpt lat="51.9829867501" lon="-2.1615994535"><ele>13.60</ele><time>2017-04-12T09:24:21Z</time></trkpt><trkpt lat="51.9829922821" lon="-2.1616701968"><ele>13.60</ele><time>2017-04-12T09:24:41Z</time></trkpt><trkpt lat="51.9829921145" lon="-2.1616903134"><ele>13.60</ele><time>2017-04-12T09:25:07Z</time></trkpt><trkpt lat="51.9829548988" lon="-2.1617191471"><ele>13.12</ele><time>2017-04-12T09:25:21Z</time></trkpt><trkpt lat="51.9829495344" lon="-2.1619614679"><ele>13.60</ele><time>2017-04-12T09:25:37Z</time></trkpt><trkpt lat="51.9830117282" lon="-2.1620850172"><ele>13.12</ele><time>2017-04-12T09:25:55Z</time></trkpt><trkpt lat="51.9830915239" lon="-2.1622406691"><ele>12.63</ele><time>2017-04-12T09:26:10Z</time></trkpt><trkpt lat="51.9831347745" lon="-2.1623042878"><ele>13.12</ele><time>2017-04-12T09:26:17Z</time></trkpt><trkpt lat="51.9832693879" lon="-2.1625464410"><ele>12.63</ele><time>2017-04-12T09:26:36Z</time></trkpt><trkpt lat="51.9833822921" lon="-2.1628274024"><ele>13.12</ele><time>2017-04-12T09:26:56Z</time></trkpt><trkpt lat="51.9835137203" lon="-2.1630315017"><ele>12.63</ele><time>2017-04-12T09:27:15Z</time></trkpt><trkpt lat="51.9836537819" lon="-2.1632968727"><ele>12.63</ele><time>2017-04-12T09:27:37Z</time></trkpt><trkpt lat="51.9837710448" lon="-2.1635147184"><ele>12.15</ele><time>2017-04-12T09:27:55Z</time></trkpt><trkpt lat="51.9838122837" lon="-2.1635673568"><ele>11.67</ele><time>2017-04-12T09:28:03Z</time></trkpt><trkpt lat="51.9838440511" lon="-2.1635512635"><ele>12.63</ele><time>2017-04-12T09:28:22Z</time></trkpt><trkpt lat="51.9838668499" lon="-2.1635041572"><ele>12.15</ele><time>2017-04-12T09:28:39Z</time></trkpt><trkpt lat="51.9838621560" lon="-2.1635498386"><ele>12.63</ele><time>2017-04-12T09:29:02Z</time></trkpt><trkpt lat="51.9838847872" lon="-2.1636673529"><ele>9.27</ele><time>2017-04-12T09:29:08Z</time></trkpt><trkpt lat="51.9839164708" lon="-2.1637747250"><ele>12.63</ele><time>2017-04-12T09:29:13Z</time></trkpt><trkpt lat="51.9840319734" lon="-2.1639467217"><ele>13.12</ele><time>2017-04-12T09:29:28Z</time></trkpt><trkpt lat="51.9841158763" lon="-2.1641447861"><ele>12.15</ele><time>2017-04-12T09:29:41Z</time></trkpt><trkpt lat="51.9841488171" lon="-2.1643118374"><ele>12.15</ele><time>2017-04-12T09:29:48Z</time></trkpt><trkpt lat="51.9841587078" lon="-2.1644100733"><ele>12.63</ele><time>2017-04-12T09:29:55Z</time></trkpt><trkpt lat="51.9841584563" lon="-2.1644638013"><ele>12.63</ele><time>2017-04-12T09:29:58Z</time></trkpt><trkpt lat="51.9841358252" lon="-2.1646983270"><ele>12.63</ele><time>2017-04-12T09:30:11Z</time></trkpt><trkpt lat="51.9840759784" lon="-2.1648901887"><ele>12.63</ele><time>2017-04-12T09:30:24Z</time></trkpt><trkpt lat="51.9840917364" lon="-2.1650323458"><ele>12.63</ele><time>2017-04-12T09:30:32Z</time></trkpt><trkpt lat="51.9841475599" lon="-2.1650988143"><ele>13.12</ele><time>2017-04-12T09:30:39Z</time></trkpt><trkpt lat="51.9842928182" lon="-2.1651043463"><ele>14.08</ele><time>2017-04-12T09:30:54Z</time></trkpt><trkpt lat="51.9844564330" lon="-2.1649852395"><ele>13.60</ele><time>2017-04-12T09:31:12Z</time></trkpt><trkpt lat="51.9845392462" lon="-2.1648600977"><ele>13.60</ele><time>2017-04-12T09:31:27Z</time></trkpt><trkpt lat="51.9846371468" lon="-2.1647196170"><ele>13.12</ele><time>2017-04-12T09:31:44Z</time></trkpt><trkpt lat="51.9846673217" lon="-2.1646873467"><ele>13.12</ele><time>2017-04-12T09:32:02Z</time></trkpt><trkpt lat="51.9846717641" lon="-2.1646685712"><ele>12.63</ele><time>2017-04-12T09:32:30Z</time></trkpt><trkpt lat="51.9847016037" lon="-2.1647233889"><ele>11.67</ele><time>2017-04-12T09:32:43Z</time></trkpt><trkpt lat="51.9847699162" lon="-2.1648537274"><ele>12.15</ele><time>2017-04-12T09:32:53Z</time></trkpt><trkpt lat="51.9848115742" lon="-2.1650625207"><ele>11.67</ele><time>2017-04-12T09:33:00Z</time></trkpt><trkpt lat="51.9848935492" lon="-2.1652322542"><ele>11.67</ele><time>2017-04-12T09:33:14Z</time></trkpt><trkpt lat="51.9850153383" lon="-2.1653812006"><ele>11.67</ele><time>2017-04-12T09:33:29Z</time></trkpt><trkpt lat="51.9851366244" lon="-2.1654621698"><ele>11.67</ele><time>2017-04-12T09:33:45Z</time></trkpt><trkpt lat="51.9852761831" lon="-2.1656459849"><ele>11.19</ele><time>2017-04-12T09:34:05Z</time></trkpt><trkpt lat="51.9854123052" lon="-2.1658408642"><ele>11.19</ele><time>2017-04-12T09:34:24Z</time></trkpt><trkpt lat="51.9854961243" lon="-2.1659305505"><ele>10.71</ele><time>2017-04-12T09:34:38Z</time></trkpt><trkpt lat="51.9855977129" lon="-2.1662077401"><ele>8.31</ele><time>2017-04-12T09:34:59Z</time></trkpt><trkpt lat="51.9856338389" lon="-2.1663218178"><ele>9.75</ele><time>2017-04-12T09:35:15Z</time></trkpt><trkpt lat="51.9856647681" lon="-2.1665969957"><ele>8.79</ele><time>2017-04-12T09:35:33Z</time></trkpt><trkpt lat="51.9857143052" lon="-2.1668670606"><ele>8.31</ele><time>2017-04-12T09:35:51Z</time></trkpt><trkpt lat="51.9857900776" lon="-2.1671572421"><ele>7.83</ele><time>2017-04-12T09:36:10Z</time></trkpt><trkpt lat="51.9858531095" lon="-2.1674152371"><ele>7.35</ele><time>2017-04-12T09:36:27Z</time></trkpt><trkpt lat="51.9859124534" lon="-2.1676622517"><ele>7.83</ele><time>2017-04-12T09:36:45Z</time></trkpt><trkpt lat="51.9859807659" lon="-2.1679164749"><ele>8.79</ele><time>2017-04-12T09:37:03Z</time></trkpt><trkpt lat="51.9859862980" lon="-2.1679417044"><ele>9.27</ele><time>2017-04-12T09:37:04Z</time></trkpt><trkpt lat="51.9860490784" lon="-2.1681841090"><ele>8.31</ele><time>2017-04-12T09:37:18Z</time></trkpt><trkpt lat="51.9861059077" lon="-2.1682786569"><ele>7.83</ele><time>2017-04-12T09:37:30Z</time></trkpt><trkpt lat="51.9862328935" lon="-2.1685024537"><ele>8.79</ele><time>2017-04-12T09:37:49Z</time></trkpt><trkpt lat="51.9863393437" lon="-2.1686130948"><ele>9.27</ele><time>2017-04-12T09:38:07Z</time></trkpt><trkpt lat="51.9864674192" lon="-2.1687202156"><ele>10.23</ele><time>2017-04-12T09:38:27Z</time></trkpt><trkpt lat="51.9865845982" lon="-2.1688347962"><ele>9.75</ele><time>2017-04-12T09:38:45Z</time></trkpt><trkpt lat="51.9866056368" lon="-2.1690662205"><ele>9.75</ele><time>2017-04-12T09:39:03Z</time></trkpt><trkpt lat="51.9866632205" lon="-2.1689801384"><ele>10.23</ele><time>2017-04-12T09:39:18Z</time></trkpt><trkpt lat="51.9867295213" lon="-2.1687220596"><ele>10.71</ele><time>2017-04-12T09:39:39Z</time></trkpt><trkpt lat="51.9867849257" lon="-2.1684504021"><ele>11.19</ele><time>2017-04-12T09:39:58Z</time></trkpt><trkpt lat="51.9868349656" lon="-2.1681722067"><ele>11.19</ele><time>2017-04-12T09:40:17Z</time></trkpt><trkpt lat="51.9869088940" lon="-2.1679359209"><ele>11.19</ele><time>2017-04-12T09:40:35Z</time></trkpt><trkpt lat="51.9869151805" lon="-2.1677929256"><ele>11.67</ele><time>2017-04-12T09:40:52Z</time></trkpt><trkpt lat="51.9869161025" lon="-2.1675636806"><ele>10.71</ele><time>2017-04-12T09:41:09Z</time></trkpt><trkpt lat="51.9870584272" lon="-2.1672670450"><ele>10.71</ele><time>2017-04-12T09:41:31Z</time></trkpt><trkpt lat="51.9871566631" lon="-2.1669518854"><ele>10.71</ele><time>2017-04-12T09:41:52Z</time></trkpt><trkpt lat="51.9872895163" lon="-2.1666117478"><ele>10.23</ele><time>2017-04-12T09:42:17Z</time></trkpt><trkpt lat="51.9873408135" lon="-2.1664027870"><ele>9.75</ele><time>2017-04-12T09:42:37Z</time></trkpt><trkpt lat="51.9873531349" lon="-2.1662109252"><ele>8.79</ele><time>2017-04-12T09:42:54Z</time></trkpt><trkpt lat="51.9874168374" lon="-2.1660056524"><ele>8.79</ele><time>2017-04-12T09:43:08Z</time></trkpt><trkpt lat="51.9873328507" lon="-2.1656929236"><ele>8.31</ele><time>2017-04-12T09:43:28Z</time></trkpt><trkpt lat="51.9874481857" lon="-2.1653827094"><ele>8.31</ele><time>2017-04-12T09:43:47Z</time></trkpt><trkpt lat="51.9876909256" lon="-2.1651077829"><ele>7.83</ele><time>2017-04-12T09:44:06Z</time></trkpt><trkpt lat="51.9878596533" lon="-2.1648865845"><ele>7.83</ele><time>2017-04-12T09:44:25Z</time></trkpt><trkpt lat="51.9879510999" lon="-2.1645961516"><ele>7.35</ele><time>2017-04-12T09:44:46Z</time></trkpt><trkpt lat="51.9878453203" lon="-2.1642916370"><ele>7.35</ele><time>2017-04-12T09:45:06Z</time></trkpt><trkpt lat="51.9878889062" lon="-2.1640789881"><ele>7.35</ele><time>2017-04-12T09:45:24Z</time></trkpt><trkpt lat="51.9878072664" lon="-2.1640874539"><ele>7.35</ele><time>2017-04-12T09:45:45Z</time></trkpt><trkpt lat="51.9878669456" lon="-2.1640641522"><ele>6.87</ele><time>2017-04-12T09:46:11Z</time></trkpt><trkpt lat="51.9879946858" lon="-2.1640347317"><ele>6.39</ele><time>2017-04-12T09:46:38Z</time></trkpt><trkpt lat="51.9880562089" lon="-2.1639640722"><ele>7.35</ele><time>2017-04-12T09:46:59Z</time></trkpt><trkpt lat="51.9880763255" lon="-2.1639338974"><ele>6.87</ele><time>2017-04-12T09:47:20Z</time></trkpt><trkpt lat="51.9881584682" lon="-2.1639095061"><ele>6.39</ele><time>2017-04-12T09:47:49Z</time></trkpt><trkpt lat="51.9883876294" lon="-2.1638240945"><ele>5.42</ele><time>2017-04-12T09:48:09Z</time></trkpt><trkpt lat="51.9885012880" lon="-2.1638028044"><ele>4.94</ele><time>2017-04-12T09:48:29Z</time></trkpt><trkpt lat="51.9885307085" lon="-2.1638135333"><ele>4.46</ele><time>2017-04-12T09:48:32Z</time></trkpt><trkpt lat="51.9886034634" lon="-2.1638085879"><ele>5.42</ele><time>2017-04-12T09:48:36Z</time></trkpt><trkpt lat="51.9887906313" lon="-2.1637753956"><ele>4.94</ele><time>2017-04-12T09:48:52Z</time></trkpt><trkpt lat="51.9889413379" lon="-2.1637191530"><ele>4.94</ele><time>2017-04-12T09:49:07Z</time></trkpt><trkpt lat="51.9891473651" lon="-2.1637200750"><ele>5.42</ele><time>2017-04-12T09:49:25Z</time></trkpt><trkpt lat="51.9891670626" lon="-2.1637080051"><ele>1.10</ele><time>2017-04-12T09:49:27Z</time></trkpt><trkpt lat="51.9891768694" lon="-2.1637018025"><ele>5.91</ele><time>2017-04-12T09:49:28Z</time></trkpt><trkpt lat="51.9893534761" lon="-2.1636763215"><ele>4.46</ele><time>2017-04-12T09:49:47Z</time></trkpt><trkpt lat="51.9894511253" lon="-2.1636918280"><ele>4.46</ele><time>2017-04-12T09:50:10Z</time></trkpt><trkpt lat="51.9894374628" lon="-2.1637010481"><ele>4.46</ele><time>2017-04-12T09:50:31Z</time></trkpt><trkpt lat="51.9895522948" lon="-2.1637235954"><ele>4.94</ele><time>2017-04-12T09:50:47Z</time></trkpt><trkpt lat="51.9897952862" lon="-2.1636871342"><ele>4.46</ele><time>2017-04-12T09:51:11Z</time></trkpt><trkpt lat="51.9899567217" lon="-2.1635943465"><ele>3.98</ele><time>2017-04-12T09:51:30Z</time></trkpt><trkpt lat="51.9901069254" lon="-2.1636053268"><ele>3.50</ele><time>2017-04-12T09:51:49Z</time></trkpt><trkpt lat="51.9902245235" lon="-2.1637706179"><ele>3.50</ele><time>2017-04-12T09:52:06Z</time></trkpt><trkpt lat="51.9903312251" lon="-2.1639281139"><ele>2.54</ele><time>2017-04-12T09:52:25Z</time></trkpt><trkpt lat="51.9903297164" lon="-2.1639252640"><ele>3.98</ele><time>2017-04-12T09:52:46Z</time></trkpt><trkpt lat="51.9903293811" lon="-2.1639119368"><ele>3.98</ele><time>2017-04-12T09:53:03Z</time></trkpt><trkpt lat="51.9903229270" lon="-2.1638914011"><ele>3.98</ele><time>2017-04-12T09:53:34Z</time></trkpt><trkpt lat="51.9903155509" lon="-2.1638870426"><ele>4.46</ele><time>2017-04-12T09:54:04Z</time></trkpt><trkpt lat="51.9903239328" lon="-2.1638982743"><ele>3.98</ele><time>2017-04-12T09:54:30Z</time></trkpt><trkpt lat="51.9903247710" lon="-2.1638790797"><ele>3.98</ele><time>2017-04-12T09:54:52Z</time></trkpt><trkpt lat="51.9902908243" lon="-2.1638346557"><ele>3.98</ele><time>2017-04-12T09:55:11Z</time></trkpt><trkpt lat="51.9903202448" lon="-2.1638748888"><ele>3.50</ele><time>2017-04-12T09:55:28Z</time></trkpt><trkpt lat="51.9904719573" lon="-2.1640933212"><ele>3.50</ele><time>2017-04-12T09:55:51Z</time></trkpt><trkpt lat="51.9903527666" lon="-2.1639681794"><ele>3.02</ele><time>2017-04-12T09:56:08Z</time></trkpt><trkpt lat="51.9903223403" lon="-2.1639268566"><ele>4.46</ele><time>2017-04-12T09:56:31Z</time></trkpt><trkpt lat="51.9902382698" lon="-2.1638470609"><ele>3.98</ele><time>2017-04-12T09:57:01Z</time></trkpt><trkpt lat="51.9902485795" lon="-2.1638543531"><ele>3.98</ele><time>2017-04-12T09:57:23Z</time></trkpt><trkpt lat="51.9902542792" lon="-2.1638405230"><ele>3.98</ele><time>2017-04-12T09:57:48Z</time></trkpt><trkpt lat="51.9902731385" lon="-2.1638561971"><ele>4.94</ele><time>2017-04-12T09:58:15Z</time></trkpt><trkpt lat="51.9902691152" lon="-2.1638522577"><ele>4.94</ele><time>2017-04-12T09:58:44Z</time></trkpt><trkpt lat="51.9902531058" lon="-2.1638038103"><ele>4.94</ele><time>2017-04-12T09:59:09Z</time></trkpt><trkpt lat="51.9902967755" lon="-2.1638576221"><ele>4.94</ele><time>2017-04-12T09:59:29Z</time></trkpt><trkpt lat="51.9903007988" lon="-2.1638703626"><ele>4.94</ele><time>2017-04-12T09:59:59Z</time></trkpt><trkpt lat="51.9903007988" lon="-2.1638665907"><ele>4.94</ele><time>2017-04-12T10:00:24Z</time></trkpt><trkpt lat="51.9903002121" lon="-2.1638601366"><ele>4.94</ele><time>2017-04-12T10:00:48Z</time></trkpt><trkpt lat="51.9902764075" lon="-2.1638600528"><ele>4.94</ele><time>2017-04-12T10:01:09Z</time></trkpt><trkpt lat="51.9902707916" lon="-2.1638595499"><ele>5.91</ele><time>2017-04-12T10:01:33Z</time></trkpt><trkpt lat="51.9902624935" lon="-2.1638470609"><ele>5.42</ele><time>2017-04-12T10:01:55Z</time></trkpt><trkpt lat="51.9902619068" lon="-2.1638623998"><ele>5.42</ele><time>2017-04-12T10:02:19Z</time></trkpt><trkpt lat="51.9902320672" lon="-2.1638148744"><ele>5.42</ele><time>2017-04-12T10:02:27Z</time></trkpt><trkpt lat="51.9902580511" lon="-2.1638378408"><ele>5.42</ele><time>2017-04-12T10:02:50Z</time></trkpt><trkpt lat="51.9902893994" lon="-2.1638121922"><ele>5.42</ele><time>2017-04-12T10:03:22Z</time></trkpt><trkpt lat="51.9902938418" lon="-2.1638336498"><ele>5.91</ele><time>2017-04-12T10:03:56Z</time></trkpt><trkpt lat="51.9902968593" lon="-2.1638437919"><ele>5.91</ele><time>2017-04-12T10:04:18Z</time></trkpt><trkpt lat="51.9902952667" lon="-2.1638389304"><ele>5.42</ele><time>2017-04-12T10:04:49Z</time></trkpt><trkpt lat="51.9902874716" lon="-2.1638374217"><ele>6.39</ele><time>2017-04-12T10:05:16Z</time></trkpt><trkpt lat="51.9902880583" lon="-2.1638379246"><ele>5.91</ele><time>2017-04-12T10:05:33Z</time></trkpt><trkpt lat="51.9903290458" lon="-2.1637920756"><ele>6.87</ele><time>2017-04-12T10:05:47Z</time></trkpt><trkpt lat="51.9903944246" lon="-2.1636777464"><ele>5.42</ele><time>2017-04-12T10:06:04Z</time></trkpt><trkpt lat="51.9904841948" lon="-2.1635529399"><ele>6.39</ele><time>2017-04-12T10:06:23Z</time></trkpt><trkpt lat="51.9906204008" lon="-2.1633899119"><ele>6.87</ele><time>2017-04-12T10:06:37Z</time></trkpt><trkpt lat="51.9906305429" lon="-2.1633782610"><ele>6.39</ele><time>2017-04-12T10:06:38Z</time></trkpt><trkpt lat="51.9907697663" lon="-2.1632307395"><ele>5.91</ele><time>2017-04-12T10:06:53Z</time></trkpt><trkpt lat="51.9908547588" lon="-2.1631235350"><ele>6.87</ele><time>2017-04-12T10:07:06Z</time></trkpt><trkpt lat="51.9908866938" lon="-2.1630941983"><ele>6.39</ele><time>2017-04-12T10:07:19Z</time></trkpt><trkpt lat="51.9908994343" lon="-2.1630653646"><ele>5.91</ele><time>2017-04-12T10:07:31Z</time></trkpt><trkpt lat="51.9909021165" lon="-2.1629997343"><ele>6.39</ele><time>2017-04-12T10:07:47Z</time></trkpt><trkpt lat="51.9908927288" lon="-2.1628281567"><ele>6.39</ele><time>2017-04-12T10:08:04Z</time></trkpt><trkpt lat="51.9909755420" lon="-2.1627066191"><ele>6.39</ele><time>2017-04-12T10:08:18Z</time></trkpt><trkpt lat="51.9910167810" lon="-2.1626218781"><ele>6.87</ele><time>2017-04-12T10:08:34Z</time></trkpt><trkpt lat="51.9910298567" lon="-2.1626147535"><ele>6.87</ele><time>2017-04-12T10:08:55Z</time></trkpt><trkpt lat="51.9910855964" lon="-2.1626230516"><ele>7.83</ele><time>2017-04-12T10:09:08Z</time></trkpt><trkpt lat="51.9911515620" lon="-2.1626430005"><ele>6.87</ele><time>2017-04-12T10:09:31Z</time></trkpt><trkpt lat="51.9911591895" lon="-2.1626454312"><ele>7.83</ele><time>2017-04-12T10:09:35Z</time></trkpt><trkpt lat="51.9912218023" lon="-2.1626298409"><ele>7.83</ele><time>2017-04-12T10:09:50Z</time></trkpt><trkpt lat="51.9912891928" lon="-2.1625809744"><ele>6.87</ele><time>2017-04-12T10:10:04Z</time></trkpt><trkpt lat="51.9913553260" lon="-2.1625391487"><ele>7.35</ele><time>2017-04-12T10:10:24Z</time></trkpt><trkpt lat="51.9913756102" lon="-2.1625177749"><ele>7.35</ele><time>2017-04-12T10:10:42Z</time></trkpt><trkpt lat="51.9914226327" lon="-2.1624106541"><ele>7.35</ele><time>2017-04-12T10:10:56Z</time></trkpt><trkpt lat="51.9914902747" lon="-2.1622754540"><ele>7.35</ele><time>2017-04-12T10:11:08Z</time></trkpt><trkpt lat="51.9916108064" lon="-2.1620646492"><ele>7.83</ele><time>2017-04-12T10:11:25Z</time></trkpt><trkpt lat="51.9916944578" lon="-2.1619421057"><ele>8.31</ele><time>2017-04-12T10:11:40Z</time></trkpt><trkpt lat="51.9918127265" lon="-2.1617012098"><ele>8.31</ele><time>2017-04-12T10:11:54Z</time></trkpt><trkpt lat="51.9918772671" lon="-2.1615108568"><ele>7.83</ele><time>2017-04-12T10:12:09Z</time></trkpt><trkpt lat="51.9918984734" lon="-2.1614584699"><ele>8.31</ele><time>2017-04-12T10:12:24Z</time></trkpt><trkpt lat="51.9918911811" lon="-2.1613174863"><ele>7.83</ele><time>2017-04-12T10:12:38Z</time></trkpt><trkpt lat="51.9920262136" lon="-2.1610201802"><ele>8.79</ele><time>2017-04-12T10:12:54Z</time></trkpt><trkpt lat="51.9921002258" lon="-2.1610030811"><ele>8.31</ele><time>2017-04-12T10:13:11Z</time></trkpt><trkpt lat="51.9921079371" lon="-2.1608680487"><ele>8.31</ele><time>2017-04-12T10:13:24Z</time></trkpt><trkpt lat="51.9920998067" lon="-2.1607994847"><ele>9.75</ele><time>2017-04-12T10:13:44Z</time></trkpt><trkpt lat="51.9920286443" lon="-2.1607590839"><ele>9.27</ele><time>2017-04-12T10:13:57Z</time></trkpt><trkpt lat="51.9920324162" lon="-2.1607548092"><ele>9.27</ele><time>2017-04-12T10:13:59Z</time></trkpt><trkpt lat="51.9920336735" lon="-2.1608947869"><ele>8.79</ele><time>2017-04-12T10:14:10Z</time></trkpt><trkpt lat="51.9920056779" lon="-2.1609367803"><ele>8.31</ele><time>2017-04-12T10:14:22Z</time></trkpt><trkpt lat="51.9919749163" lon="-2.1608910989"><ele>8.79</ele><time>2017-04-12T10:14:41Z</time></trkpt><trkpt lat="51.9918610062" lon="-2.1608338505"><ele>9.75</ele><time>2017-04-12T10:14:59Z</time></trkpt><trkpt lat="51.9917111378" lon="-2.1609005705"><ele>10.23</ele><time>2017-04-12T10:15:17Z</time></trkpt><trkpt lat="51.9916782808" lon="-2.1608588286"><ele>9.75</ele><time>2017-04-12T10:15:37Z</time></trkpt><trkpt lat="51.9916352816" lon="-2.1608188469"><ele>10.23</ele><time>2017-04-12T10:15:56Z</time></trkpt><trkpt lat="51.9916904345" lon="-2.1607352793"><ele>10.71</ele><time>2017-04-12T10:16:12Z</time></trkpt><trkpt lat="51.9917135686" lon="-2.1607211139"><ele>10.71</ele><time>2017-04-12T10:16:32Z</time></trkpt><trkpt lat="51.9917881675" lon="-2.1607175935"><ele>10.71</ele><time>2017-04-12T10:16:48Z</time></trkpt><trkpt lat="51.9917952083" lon="-2.1607033443"><ele>10.23</ele><time>2017-04-12T10:17:10Z</time></trkpt><trkpt lat="51.9917967170" lon="-2.1607066970"><ele>10.71</ele><time>2017-04-12T10:17:37Z</time></trkpt><trkpt lat="51.9918093737" lon="-2.1607261430"><ele>10.23</ele><time>2017-04-12T10:18:12Z</time></trkpt><trkpt lat="51.9918091223" lon="-2.1607302502"><ele>10.71</ele><time>2017-04-12T10:18:46Z</time></trkpt><trkpt lat="51.9918074459" lon="-2.1607290767"><ele>10.71</ele><time>2017-04-12T10:19:23Z</time></trkpt><trkpt lat="51.9918066915" lon="-2.1607305855"><ele>10.71</ele><time>2017-04-12T10:19:59Z</time></trkpt><trkpt lat="51.9918050151" lon="-2.1607332677"><ele>11.19</ele><time>2017-04-12T10:20:33Z</time></trkpt><trkpt lat="51.9917950407" lon="-2.1607315913"><ele>12.15</ele><time>2017-04-12T10:21:07Z</time></trkpt><trkpt lat="51.9917636923" lon="-2.1607530490"><ele>12.15</ele><time>2017-04-12T10:21:24Z</time></trkpt><trkpt lat="51.9917799532" lon="-2.1607434936"><ele>12.15</ele><time>2017-04-12T10:21:43Z</time></trkpt><trkpt lat="51.9917679671" lon="-2.1607368719"><ele>11.67</ele><time>2017-04-12T10:22:03Z</time></trkpt><trkpt lat="51.9916856568" lon="-2.1607402246"><ele>11.67</ele><time>2017-04-12T10:22:19Z</time></trkpt><trkpt lat="51.9916616008" lon="-2.1607662085"><ele>11.19</ele><time>2017-04-12T10:22:35Z</time></trkpt><trkpt lat="51.9916283246" lon="-2.1608131472"><ele>12.15</ele><time>2017-04-12T10:22:53Z</time></trkpt><trkpt lat="51.9916530512" lon="-2.1607609279"><ele>11.19</ele><time>2017-04-12T10:23:09Z</time></trkpt><trkpt lat="51.9916989841" lon="-2.1606719121"><ele>10.71</ele><time>2017-04-12T10:23:27Z</time></trkpt><trkpt lat="51.9917669613" lon="-2.1604741830"><ele>10.23</ele><time>2017-04-12T10:23:43Z</time></trkpt><trkpt lat="51.9917965494" lon="-2.1604468580"><ele>11.19</ele><time>2017-04-12T10:23:47Z</time></trkpt><trkpt lat="51.9918436557" lon="-2.1603306849"><ele>10.71</ele><time>2017-04-12T10:24:01Z</time></trkpt><trkpt lat="51.9918666221" lon="-2.1603140049"><ele>10.71</ele><time>2017-04-12T10:24:15Z</time></trkpt><trkpt lat="51.9919180032" lon="-2.1602466144"><ele>10.71</ele><time>2017-04-12T10:24:28Z</time></trkpt><trkpt lat="51.9919449929" lon="-2.1601969097"><ele>10.71</ele><time>2017-04-12T10:24:32Z</time></trkpt><trkpt lat="51.9920210168" lon="-2.1599807404"><ele>10.71</ele><time>2017-04-12T10:24:47Z</time></trkpt><trkpt lat="51.9920718111" lon="-2.1597853582"><ele>10.23</ele><time>2017-04-12T10:25:02Z</time></trkpt><trkpt lat="51.9920988008" lon="-2.1596553549"><ele>10.71</ele><time>2017-04-12T10:25:15Z</time></trkpt><trkpt lat="51.9920977112" lon="-2.1595893055"><ele>10.71</ele><time>2017-04-12T10:25:32Z</time></trkpt><trkpt lat="51.9920984656" lon="-2.1595978551"><ele>10.71</ele><time>2017-04-12T10:25:53Z</time></trkpt><trkpt lat="51.9921279699" lon="-2.1596514992"><ele>10.23</ele><time>2017-04-12T10:26:06Z</time></trkpt><trkpt lat="51.9922033232" lon="-2.1597277746"><ele>10.71</ele><time>2017-04-12T10:26:22Z</time></trkpt><trkpt lat="51.9922093581" lon="-2.1597361565"><ele>10.23</ele><time>2017-04-12T10:26:23Z</time></trkpt><trkpt lat="51.9922717195" lon="-2.1597794909"><ele>10.71</ele><time>2017-04-12T10:26:37Z</time></trkpt><trkpt lat="51.9923423789" lon="-2.1597577818"><ele>9.75</ele><time>2017-04-12T10:26:52Z</time></trkpt><trkpt lat="51.9924628269" lon="-2.1596759744"><ele>10.23</ele><time>2017-04-12T10:27:08Z</time></trkpt><trkpt lat="51.9925329834" lon="-2.1596349869"><ele>10.23</ele><time>2017-04-12T10:27:24Z</time></trkpt><trkpt lat="51.9925921597" lon="-2.1595987771"><ele>9.75</ele><time>2017-04-12T10:27:36Z</time></trkpt><trkpt lat="51.9926813431" lon="-2.1594951767"><ele>10.23</ele><time>2017-04-12T10:27:49Z</time></trkpt><trkpt lat="51.9926907308" lon="-2.1594730485"><ele>10.23</ele><time>2017-04-12T10:28:05Z</time></trkpt><trkpt lat="51.9927059859" lon="-2.1594490763"><ele>10.23</ele><time>2017-04-12T10:28:26Z</time></trkpt><trkpt lat="51.9927335624" lon="-2.1594434604"><ele>10.71</ele><time>2017-04-12T10:28:44Z</time></trkpt><trkpt lat="51.9928122684" lon="-2.1594594698"><ele>11.19</ele><time>2017-04-12T10:29:02Z</time></trkpt><trkpt lat="51.9928593747" lon="-2.1594811790"><ele>10.71</ele><time>2017-04-12T10:29:29Z</time></trkpt><trkpt lat="51.9928967580" lon="-2.1593975276"><ele>10.71</ele><time>2017-04-12T10:29:50Z</time></trkpt><trkpt lat="51.9929120131" lon="-2.1593821887"><ele>10.71</ele><time>2017-04-12T10:29:52Z</time></trkpt><trkpt lat="51.9930106681" lon="-2.1593447216"><ele>10.23</ele><time>2017-04-12T10:30:04Z</time></trkpt><trkpt lat="51.9931109156" lon="-2.1592415404"><ele>11.19</ele><time>2017-04-12T10:30:19Z</time></trkpt><trkpt lat="51.9931753725" lon="-2.1591956075"><ele>10.71</ele><time>2017-04-12T10:30:27Z</time></trkpt><trkpt lat="51.9932814874" lon="-2.1591258701"><ele>11.67</ele><time>2017-04-12T10:30:41Z</time></trkpt><trkpt lat="51.9933580142" lon="-2.1590079367"><ele>11.67</ele><time>2017-04-12T10:30:56Z</time></trkpt><trkpt lat="51.9934594352" lon="-2.1588600799"><ele>12.15</ele><time>2017-04-12T10:31:09Z</time></trkpt><trkpt lat="51.9935576711" lon="-2.1589381155"><ele>10.71</ele><time>2017-04-12T10:31:26Z</time></trkpt><trkpt lat="51.9935803022" lon="-2.1588291507"><ele>12.63</ele><time>2017-04-12T10:31:37Z</time></trkpt><trkpt lat="51.9935430866" lon="-2.1587303281"><ele>13.12</ele><time>2017-04-12T10:31:49Z</time></trkpt><trkpt lat="51.9935704954" lon="-2.1587240417"><ele>12.63</ele><time>2017-04-12T10:32:05Z</time></trkpt><trkpt lat="51.9937270693" lon="-2.1587240417"><ele>12.63</ele><time>2017-04-12T10:32:21Z</time></trkpt><trkpt lat="51.9938280713" lon="-2.1588173322"><ele>12.63</ele><time>2017-04-12T10:32:34Z</time></trkpt><trkpt lat="51.9939045142" lon="-2.1587893367"><ele>12.15</ele><time>2017-04-12T10:32:50Z</time></trkpt><trkpt lat="51.9939308334" lon="-2.1587858163"><ele>11.67</ele><time>2017-04-12T10:33:14Z</time></trkpt><trkpt lat="51.9939585775" lon="-2.1587704774"><ele>11.67</ele><time>2017-04-12T10:33:33Z</time></trkpt><trkpt lat="51.9939857349" lon="-2.1587422304"><ele>11.19</ele><time>2017-04-12T10:33:59Z</time></trkpt><trkpt lat="51.9940204360" lon="-2.1587147377"><ele>11.19</ele><time>2017-04-12T10:34:04Z</time></trkpt><trkpt lat="51.9941364415" lon="-2.1586094610"><ele>11.19</ele><time>2017-04-12T10:34:19Z</time></trkpt><trkpt lat="51.9942724798" lon="-2.1584514622"><ele>11.67</ele><time>2017-04-12T10:34:36Z</time></trkpt><trkpt lat="51.9943911675" lon="-2.1584059484"><ele>11.67</ele><time>2017-04-12T10:34:49Z</time></trkpt><trkpt lat="51.9944722205" lon="-2.1584332734"><ele>12.63</ele><time>2017-04-12T10:35:02Z</time></trkpt><trkpt lat="51.9945219252" lon="-2.1584979817"><ele>13.12</ele><time>2017-04-12T10:35:14Z</time></trkpt><trkpt lat="51.9945473224" lon="-2.1585608460"><ele>12.63</ele><time>2017-04-12T10:35:35Z</time></trkpt><trkpt lat="51.9945841189" lon="-2.1586532984"><ele>11.67</ele><time>2017-04-12T10:35:51Z</time></trkpt><trkpt lat="51.9945968594" lon="-2.1587307472"><ele>11.67</ele><time>2017-04-12T10:36:06Z</time></trkpt><trkpt lat="51.9946416188" lon="-2.1588547993"><ele>10.71</ele><time>2017-04-12T10:36:23Z</time></trkpt><trkpt lat="51.9946980290" lon="-2.1590363514"><ele>10.23</ele><time>2017-04-12T10:36:34Z</time></trkpt><trkpt lat="51.9947429560" lon="-2.1591816097"><ele>10.23</ele><time>2017-04-12T10:36:41Z</time></trkpt><trkpt lat="51.9948033895" lon="-2.1594904829"><ele>10.71</ele><time>2017-04-12T10:36:55Z</time></trkpt><trkpt lat="51.9948372524" lon="-2.1596571989"><ele>11.19</ele><time>2017-04-12T10:37:09Z</time></trkpt><trkpt lat="51.9949013740" lon="-2.1598181315"><ele>11.19</ele><time>2017-04-12T10:37:21Z</time></trkpt><trkpt lat="51.9949372485" lon="-2.1600000188"><ele>11.19</ele><time>2017-04-12T10:37:34Z</time></trkpt><trkpt lat="51.9949452952" lon="-2.1600814909"><ele>11.19</ele><time>2017-04-12T10:37:49Z</time></trkpt><trkpt lat="51.9950116798" lon="-2.1602849197"><ele>11.19</ele><time>2017-04-12T10:38:04Z</time></trkpt><trkpt lat="51.9950168766" lon="-2.1602992527"><ele>11.67</ele><time>2017-04-12T10:38:05Z</time></trkpt><trkpt lat="51.9950887095" lon="-2.1604839899"><ele>10.71</ele><time>2017-04-12T10:38:19Z</time></trkpt><trkpt lat="51.9951768871" lon="-2.1607153304"><ele>10.71</ele><time>2017-04-12T10:38:36Z</time></trkpt><trkpt lat="51.9951987639" lon="-2.1608029213"><ele>10.71</ele><time>2017-04-12T10:38:53Z</time></trkpt><trkpt lat="51.9951932319" lon="-2.1608184278"><ele>10.71</ele><time>2017-04-12T10:39:21Z</time></trkpt><trkpt lat="51.9951865263" lon="-2.1607762668"><ele>10.71</ele><time>2017-04-12T10:39:47Z</time></trkpt><trkpt lat="51.9951700140" lon="-2.1607106365"><ele>10.71</ele><time>2017-04-12T10:40:04Z</time></trkpt><trkpt lat="51.9951120950" lon="-2.1605010051"><ele>11.19</ele><time>2017-04-12T10:40:20Z</time></trkpt><trkpt lat="51.9950334728" lon="-2.1603015997"><ele>11.19</ele><time>2017-04-12T10:40:32Z</time></trkpt><trkpt lat="51.9949367456" lon="-2.1600028686"><ele>11.19</ele><time>2017-04-12T10:40:49Z</time></trkpt><trkpt lat="51.9948802516" lon="-2.1598071512"><ele>11.19</ele><time>2017-04-12T10:41:03Z</time></trkpt><trkpt lat="51.9948389288" lon="-2.1596035548"><ele>10.71</ele><time>2017-04-12T10:41:19Z</time></trkpt><trkpt lat="51.9947733823" lon="-2.1593632456"><ele>10.23</ele><time>2017-04-12T10:41:33Z</time></trkpt><trkpt lat="51.9947233424" lon="-2.1591694560"><ele>10.71</ele><time>2017-04-12T10:41:47Z</time></trkpt><trkpt lat="51.9947057404" lon="-2.1589942742"><ele>11.19</ele><time>2017-04-12T10:41:59Z</time></trkpt><trkpt lat="51.9946788345" lon="-2.1589310747"><ele>11.19</ele><time>2017-04-12T10:42:14Z</time></trkpt><trkpt lat="51.9946794212" lon="-2.1589299012"><ele>11.19</ele><time>2017-04-12T10:42:39Z</time></trkpt><trkpt lat="51.9946360867" lon="-2.1587961260"><ele>11.67</ele><time>2017-04-12T10:42:54Z</time></trkpt><trkpt lat="51.9945867173" lon="-2.1586221177"><ele>12.15</ele><time>2017-04-12T10:43:08Z</time></trkpt><trkpt lat="51.9945412036" lon="-2.1584334411"><ele>11.19</ele><time>2017-04-12T10:43:25Z</time></trkpt><trkpt lat="51.9946031459" lon="-2.1583538130"><ele>10.71</ele><time>2017-04-12T10:43:40Z</time></trkpt><trkpt lat="51.9947067462" lon="-2.1582945529"><ele>11.19</ele><time>2017-04-12T10:43:53Z</time></trkpt><trkpt lat="51.9948218297" lon="-2.1582000889"><ele>11.19</ele><time>2017-04-12T10:44:08Z</time></trkpt><trkpt lat="51.9949992746" lon="-2.1580263320"><ele>11.19</ele><time>2017-04-12T10:44:26Z</time></trkpt><trkpt lat="51.9951412641" lon="-2.1578934789"><ele>11.67</ele><time>2017-04-12T10:44:41Z</time></trkpt><trkpt lat="51.9952379074" lon="-2.1578978375"><ele>12.15</ele><time>2017-04-12T10:44:55Z</time></trkpt><trkpt lat="51.9952984247" lon="-2.1579038724"><ele>12.63</ele><time>2017-04-12T10:45:09Z</time></trkpt><trkpt lat="51.9953201339" lon="-2.1579298563"><ele>12.63</ele><time>2017-04-12T10:45:25Z</time></trkpt><trkpt lat="51.9953394961" lon="-2.1579744481"><ele>12.15</ele><time>2017-04-12T10:45:45Z</time></trkpt><trkpt lat="51.9953473751" lon="-2.1580570936"><ele>11.67</ele><time>2017-04-12T10:46:00Z</time></trkpt><trkpt lat="51.9953612052" lon="-2.1581033617"><ele>10.23</ele><time>2017-04-12T10:46:26Z</time></trkpt><trkpt lat="51.9954433478" lon="-2.1580921300"><ele>9.27</ele><time>2017-04-12T10:46:40Z</time></trkpt><trkpt lat="51.9955585152" lon="-2.1578771342"><ele>9.27</ele><time>2017-04-12T10:46:53Z</time></trkpt><trkpt lat="51.9955694955" lon="-2.1578372363"><ele>8.79</ele><time>2017-04-12T10:47:07Z</time></trkpt><trkpt lat="51.9955658913" lon="-2.1578399185"><ele>8.79</ele><time>2017-04-12T10:47:12Z</time></trkpt><trkpt lat="51.9955733512" lon="-2.1578296926"><ele>8.79</ele><time>2017-04-12T10:47:14Z</time></trkpt><trkpt lat="51.9956003409" lon="-2.1577845979"><ele>8.79</ele><time>2017-04-12T10:47:31Z</time></trkpt><trkpt lat="51.9957400672" lon="-2.1576216538"><ele>8.79</ele><time>2017-04-12T10:47:48Z</time></trkpt><trkpt lat="51.9958037697" lon="-2.1575449593"><ele>8.31</ele><time>2017-04-12T10:48:02Z</time></trkpt><trkpt lat="51.9958437514" lon="-2.1575053129"><ele>8.31</ele><time>2017-04-12T10:48:08Z</time></trkpt><trkpt lat="51.9959808793" lon="-2.1574034728"><ele>8.31</ele><time>2017-04-12T10:48:24Z</time></trkpt><trkpt lat="51.9961126428" lon="-2.1573306341"><ele>8.79</ele><time>2017-04-12T10:48:41Z</time></trkpt><trkpt lat="51.9961421471" lon="-2.1573221684"><ele>8.79</ele><time>2017-04-12T10:49:02Z</time></trkpt><trkpt lat="51.9962066039" lon="-2.1572964359"><ele>8.79</ele><time>2017-04-12T10:49:14Z</time></trkpt><trkpt lat="51.9962117169" lon="-2.1572855394"><ele>8.79</ele><time>2017-04-12T10:49:22Z</time></trkpt><trkpt lat="51.9962179195" lon="-2.1572921611"><ele>8.31</ele><time>2017-04-12T10:49:27Z</time></trkpt><trkpt lat="51.9963702187" lon="-2.1572072525"><ele>8.31</ele><time>2017-04-12T10:49:43Z</time></trkpt><trkpt lat="51.9964118768" lon="-2.1571997087"><ele>8.79</ele><time>2017-04-12T10:50:03Z</time></trkpt><trkpt lat="51.9964401238" lon="-2.1571928356"><ele>8.31</ele><time>2017-04-12T10:50:18Z</time></trkpt><trkpt lat="51.9964643475" lon="-2.1571821067"><ele>8.79</ele><time>2017-04-12T10:50:36Z</time></trkpt><trkpt lat="51.9965125434" lon="-2.1571899857"><ele>8.31</ele><time>2017-04-12T10:50:46Z</time></trkpt><trkpt lat="51.9965959433" lon="-2.1571409516"><ele>8.31</ele><time>2017-04-12T10:50:54Z</time></trkpt><trkpt lat="51.9967865478" lon="-2.1569853835"><ele>8.31</ele><time>2017-04-12T10:51:11Z</time></trkpt><trkpt lat="51.9969432894" lon="-2.1568727307"><ele>8.79</ele><time>2017-04-12T10:51:26Z</time></trkpt><trkpt lat="51.9970717840" lon="-2.1567635145"><ele>9.27</ele><time>2017-04-12T10:51:40Z</time></trkpt><trkpt lat="51.9971374981" lon="-2.1567143966"><ele>9.27</ele><time>2017-04-12T10:51:52Z</time></trkpt><trkpt lat="51.9971438684" lon="-2.1567053441"><ele>9.75</ele><time>2017-04-12T10:52:00Z</time></trkpt><trkpt lat="51.9972633105" lon="-2.1566211898"><ele>9.27</ele><time>2017-04-12T10:52:15Z</time></trkpt><trkpt lat="51.9973350596" lon="-2.1565708145"><ele>9.75</ele><time>2017-04-12T10:52:29Z</time></trkpt><trkpt lat="51.9974542502" lon="-2.1564737521"><ele>9.75</ele><time>2017-04-12T10:52:43Z</time></trkpt><trkpt lat="51.9974960759" lon="-2.1564622689"><ele>10.71</ele><time>2017-04-12T10:52:59Z</time></trkpt><trkpt lat="51.9975119177" lon="-2.1564155817"><ele>12.15</ele><time>2017-04-12T10:53:14Z</time></trkpt><trkpt lat="51.9975165278" lon="-2.1564050205"><ele>12.15</ele><time>2017-04-12T10:53:35Z</time></trkpt><trkpt lat="51.9975171983" lon="-2.1563967224"><ele>11.67</ele><time>2017-04-12T10:54:10Z</time></trkpt><trkpt lat="51.9975199644" lon="-2.1563928667"><ele>12.15</ele><time>2017-04-12T10:54:40Z</time></trkpt><trkpt lat="51.9974523224" lon="-2.1563485265"><ele>12.63</ele><time>2017-04-12T10:54:56Z</time></trkpt><trkpt lat="51.9974384923" lon="-2.1563538909"><ele>12.15</ele><time>2017-04-12T10:55:24Z</time></trkpt><trkpt lat="51.9974247459" lon="-2.1563250571"><ele>13.60</ele><time>2017-04-12T10:55:48Z</time></trkpt><trkpt lat="51.9974102452" lon="-2.1562966425"><ele>12.63</ele><time>2017-04-12T10:55:51Z</time></trkpt><trkpt lat="51.9972943235" lon="-2.1560995001"><ele>11.67</ele><time>2017-04-12T10:56:08Z</time></trkpt><trkpt lat="51.9971914776" lon="-2.1559650544"><ele>11.67</ele><time>2017-04-12T10:56:22Z</time></trkpt><trkpt lat="51.9971436169" lon="-2.1558633819"><ele>11.67</ele><time>2017-04-12T10:56:37Z</time></trkpt><trkpt lat="51.9970516674" lon="-2.1557317022"><ele>12.15</ele><time>2017-04-12T10:56:52Z</time></trkpt><trkpt lat="51.9970110990" lon="-2.1556509845"><ele>12.15</ele><time>2017-04-12T10:57:01Z</time></trkpt><trkpt lat="51.9969658367" lon="-2.1555325482"><ele>12.63</ele><time>2017-04-12T10:57:18Z</time></trkpt><trkpt lat="51.9968986139" lon="-2.1554596256"><ele>12.63</ele><time>2017-04-12T10:57:33Z</time></trkpt><trkpt lat="51.9968287088" lon="-2.1555198915"><ele>12.63</ele><time>2017-04-12T10:57:45Z</time></trkpt><trkpt lat="51.9967805967" lon="-2.1555686742"><ele>12.63</ele><time>2017-04-12T10:57:55Z</time></trkpt><trkpt lat="51.9966872223" lon="-2.1556615457"><ele>12.63</ele><time>2017-04-12T10:58:07Z</time></trkpt><trkpt lat="51.9965983741" lon="-2.1557234880"><ele>13.12</ele><time>2017-04-12T10:58:16Z</time></trkpt><trkpt lat="51.9964651018" lon="-2.1557938959"><ele>13.60</ele><time>2017-04-12T10:58:29Z</time></trkpt><trkpt lat="51.9963573106" lon="-2.1558560058"><ele>13.60</ele><time>2017-04-12T10:58:42Z</time></trkpt><trkpt lat="51.9962884951" lon="-2.1558773797"><ele>13.60</ele><time>2017-04-12T10:58:52Z</time></trkpt><trkpt lat="51.9962703064" lon="-2.1559263300"><ele>13.12</ele><time>2017-04-12T10:59:07Z</time></trkpt><trkpt lat="51.9961403031" lon="-2.1560312714"><ele>13.12</ele><time>2017-04-12T10:59:21Z</time></trkpt><trkpt lat="51.9960643630" lon="-2.1560411621"><ele>13.12</ele><time>2017-04-12T10:59:27Z</time></trkpt><trkpt lat="51.9960386306" lon="-2.1560455207"><ele>12.63</ele><time>2017-04-12T10:59:29Z</time></trkpt><trkpt lat="51.9959339406" lon="-2.1560570039"><ele>13.12</ele><time>2017-04-12T10:59:47Z</time></trkpt><trkpt lat="51.9958175160" lon="-2.1561533120"><ele>13.60</ele><time>2017-04-12T11:00:01Z</time></trkpt><trkpt lat="51.9957317691" lon="-2.1562657971"><ele>13.12</ele><time>2017-04-12T11:00:14Z</time></trkpt><trkpt lat="51.9956226368" lon="-2.1563483588"><ele>13.12</ele><time>2017-04-12T11:00:28Z</time></trkpt><trkpt lat="51.9955263287" lon="-2.1563769411"><ele>13.12</ele><time>2017-04-12T11:00:45Z</time></trkpt><trkpt lat="51.9954895321" lon="-2.1564190183"><ele>13.60</ele><time>2017-04-12T11:00:58Z</time></trkpt><trkpt lat="51.9953436032" lon="-2.1564791165"><ele>13.60</ele><time>2017-04-12T11:01:13Z</time></trkpt><trkpt lat="51.9952041283" lon="-2.1565371193"><ele>13.60</ele><time>2017-04-12T11:01:26Z</time></trkpt><trkpt lat="51.9951105025" lon="-2.1566224471"><ele>13.60</ele><time>2017-04-12T11:01:40Z</time></trkpt><trkpt lat="51.9950458780" lon="-2.1566710621"><ele>13.60</ele><time>2017-04-12T11:01:47Z</time></trkpt><trkpt lat="51.9949530903" lon="-2.1566920169"><ele>13.60</ele><time>2017-04-12T11:02:04Z</time></trkpt><trkpt lat="51.9948868733" lon="-2.1567195095"><ele>13.60</ele><time>2017-04-12T11:02:21Z</time></trkpt><trkpt lat="51.9948165491" lon="-2.1567738242"><ele>14.08</ele><time>2017-04-12T11:02:35Z</time></trkpt><trkpt lat="51.9947893079" lon="-2.1568003111"><ele>14.08</ele><time>2017-04-12T11:02:53Z</time></trkpt><trkpt lat="51.9947971869" lon="-2.1568392031"><ele>14.08</ele><time>2017-04-12T11:02:57Z</time></trkpt><trkpt lat="51.9947421178" lon="-2.1567823738"><ele>14.08</ele><time>2017-04-12T11:03:08Z</time></trkpt><trkpt lat="51.9946887251" lon="-2.1567862295"><ele>13.60</ele><time>2017-04-12T11:03:23Z</time></trkpt><trkpt lat="51.9946380984" lon="-2.1568158176"><ele>14.56</ele><time>2017-04-12T11:03:30Z</time></trkpt><trkpt lat="51.9944847096" lon="-2.1568686236"><ele>14.08</ele><time>2017-04-12T11:03:44Z</time></trkpt><trkpt lat="51.9944049139" lon="-2.1569306497"><ele>14.08</ele><time>2017-04-12T11:03:58Z</time></trkpt><trkpt lat="51.9943713024" lon="-2.1569811925"><ele>14.08</ele><time>2017-04-12T11:04:07Z</time></trkpt><trkpt lat="51.9943371043" lon="-2.1569995489"><ele>14.08</ele><time>2017-04-12T11:04:10Z</time></trkpt><trkpt lat="51.9942453224" lon="-2.1570189111"><ele>13.60</ele><time>2017-04-12T11:04:21Z</time></trkpt><trkpt lat="51.9941715617" lon="-2.1570769139"><ele>13.60</ele><time>2017-04-12T11:04:33Z</time></trkpt><trkpt lat="51.9941453263" lon="-2.1570974495"><ele>14.08</ele><time>2017-04-12T11:04:44Z</time></trkpt><trkpt lat="51.9940648600" lon="-2.1571338270"><ele>13.60</ele><time>2017-04-12T11:04:59Z</time></trkpt><trkpt lat="51.9940262195" lon="-2.1571399458"><ele>13.12</ele><time>2017-04-12T11:05:15Z</time></trkpt><trkpt lat="51.9939689711" lon="-2.1571740601"><ele>12.63</ele><time>2017-04-12T11:05:33Z</time></trkpt><trkpt lat="51.9939242955" lon="-2.1571883932"><ele>12.63</ele><time>2017-04-12T11:05:45Z</time></trkpt><trkpt lat="51.9936941285" lon="-2.1572532691"><ele>12.15</ele><time>2017-04-12T11:06:03Z</time></trkpt><trkpt lat="51.9935352076" lon="-2.1572905686"><ele>12.63</ele><time>2017-04-12T11:06:16Z</time></trkpt><trkpt lat="51.9934393186" lon="-2.1572916582"><ele>12.63</ele><time>2017-04-12T11:06:30Z</time></trkpt><trkpt lat="51.9934420008" lon="-2.1572070848"><ele>12.15</ele><time>2017-04-12T11:06:44Z</time></trkpt><trkpt lat="51.9934150949" lon="-2.1572060790"><ele>13.12</ele><time>2017-04-12T11:06:48Z</time></trkpt><trkpt lat="51.9933854230" lon="-2.1573758963"><ele>14.56</ele><time>2017-04-12T11:18:19Z</time></trkpt><trkpt lat="51.9933196250" lon="-2.1573676821"><ele>16.00</ele><time>2017-04-12T11:18:36Z</time></trkpt><trkpt lat="51.9933273364" lon="-2.1573812608"><ele>21.29</ele><time>2017-04-12T11:18:40Z</time></trkpt><trkpt lat="51.9933291804" lon="-2.1573885530"><ele>17.44</ele><time>2017-04-12T11:18:42Z</time></trkpt><trkpt lat="51.9932405837" lon="-2.1573925763"><ele>18.88</ele><time>2017-04-12T11:18:55Z</time></trkpt><trkpt lat="51.9931412581" lon="-2.1574013773"><ele>19.36</ele><time>2017-04-12T11:19:12Z</time></trkpt><trkpt lat="51.9928781502" lon="-2.1574319713"><ele>18.88</ele><time>2017-04-12T11:19:30Z</time></trkpt><trkpt lat="51.9927901402" lon="-2.1574821789"><ele>18.88</ele><time>2017-04-12T11:19:49Z</time></trkpt><trkpt lat="51.9928240031" lon="-2.1574409399"><ele>18.40</ele><time>2017-04-12T11:20:04Z</time></trkpt><trkpt lat="51.9928421080" lon="-2.1574104298"><ele>17.92</ele><time>2017-04-12T11:20:24Z</time></trkpt><trkpt lat="51.9928282779" lon="-2.1574209072"><ele>17.92</ele><time>2017-04-12T11:20:46Z</time></trkpt><trkpt lat="51.9927964266" lon="-2.1574291214"><ele>17.92</ele><time>2017-04-12T11:21:13Z</time></trkpt><trkpt lat="51.9927992765" lon="-2.1574444603"><ele>17.92</ele><time>2017-04-12T11:21:35Z</time></trkpt><trkpt lat="51.9928037189" lon="-2.1574483160"><ele>17.92</ele><time>2017-04-12T11:22:03Z</time></trkpt><trkpt lat="51.9927917328" lon="-2.1574646607"><ele>17.92</ele><time>2017-04-12T11:22:20Z</time></trkpt><trkpt lat="51.9927687664" lon="-2.1574677620"><ele>17.44</ele><time>2017-04-12T11:22:35Z</time></trkpt><trkpt lat="51.9926929101" lon="-2.1575245913"><ele>17.44</ele><time>2017-04-12T11:22:42Z</time></trkpt><trkpt lat="51.9925009646" lon="-2.1576981805"><ele>17.44</ele><time>2017-04-12T11:22:56Z</time></trkpt><trkpt lat="51.9924153853" lon="-2.1577895433"><ele>17.44</ele><time>2017-04-12T11:23:06Z</time></trkpt><trkpt lat="51.9923191611" lon="-2.1578950714"><ele>17.44</ele><time>2017-04-12T11:23:18Z</time></trkpt><trkpt lat="51.9923108630" lon="-2.1580233984"><ele>16.96</ele><time>2017-04-12T11:23:27Z</time></trkpt><trkpt lat="51.9922474958" lon="-2.1581538208"><ele>16.48</ele><time>2017-04-12T11:23:35Z</time></trkpt><trkpt lat="51.9921975397" lon="-2.1583426651"><ele>16.96</ele><time>2017-04-12T11:23:49Z</time></trkpt><trkpt lat="51.9922034070" lon="-2.1584336087"><ele>16.48</ele><time>2017-04-12T11:24:02Z</time></trkpt><trkpt lat="51.9920734875" lon="-2.1585705690"><ele>16.00</ele><time>2017-04-12T11:24:20Z</time></trkpt><trkpt lat="51.9920024928" lon="-2.1586697269"><ele>16.00</ele><time>2017-04-12T11:24:31Z</time></trkpt><trkpt lat="51.9918374531" lon="-2.1586646978"><ele>15.04</ele><time>2017-04-12T11:24:45Z</time></trkpt><trkpt lat="51.9917599205" lon="-2.1587853134"><ele>14.56</ele><time>2017-04-12T11:24:58Z</time></trkpt><trkpt lat="51.9917167537" lon="-2.1589622553"><ele>15.04</ele><time>2017-04-12T11:25:08Z</time></trkpt><trkpt lat="51.9916314259" lon="-2.1590173244"><ele>15.04</ele><time>2017-04-12T11:25:22Z</time></trkpt><trkpt lat="51.9915599283" lon="-2.1591386106"><ele>14.56</ele><time>2017-04-12T11:25:37Z</time></trkpt><trkpt lat="51.9915731717" lon="-2.1593264490"><ele>15.04</ele><time>2017-04-12T11:25:45Z</time></trkpt><trkpt lat="51.9914989080" lon="-2.1595989447"><ele>14.08</ele><time>2017-04-12T11:25:59Z</time></trkpt><trkpt lat="51.9914242253" lon="-2.1599141043"><ele>14.08</ele><time>2017-04-12T11:26:15Z</time></trkpt><trkpt lat="51.9914041925" lon="-2.1600159444"><ele>14.08</ele><time>2017-04-12T11:26:23Z</time></trkpt><trkpt lat="51.9914098922" lon="-2.1602010168"><ele>14.08</ele><time>2017-04-12T11:26:37Z</time></trkpt><trkpt lat="51.9913606904" lon="-2.1603813116"><ele>14.08</ele><time>2017-04-12T11:26:51Z</time></trkpt><trkpt lat="51.9913023524" lon="-2.1605060343"><ele>14.08</ele><time>2017-04-12T11:27:08Z</time></trkpt><trkpt lat="51.9911838323" lon="-2.1609446593"><ele>14.08</ele><time>2017-04-12T11:27:21Z</time></trkpt><trkpt lat="51.9910118356" lon="-2.1611442324"><ele>14.08</ele><time>2017-04-12T11:27:35Z</time></trkpt><trkpt lat="51.9909747876" lon="-2.1613196656"><ele>13.60</ele><time>2017-04-12T11:27:47Z</time></trkpt><trkpt lat="51.9909459539" lon="-2.1614169795"><ele>14.08</ele><time>2017-04-12T11:27:57Z</time></trkpt><trkpt lat="51.9907908048" lon="-2.1616208274"><ele>13.60</ele><time>2017-04-12T11:28:12Z</time></trkpt><trkpt lat="51.9907271024" lon="-2.1618204005"><ele>14.08</ele><time>2017-04-12T11:28:24Z</time></trkpt><trkpt lat="51.9907506555" lon="-2.1619820036"><ele>14.56</ele><time>2017-04-12T11:28:36Z</time></trkpt><trkpt lat="51.9907877874" lon="-2.1621827502"><ele>14.56</ele><time>2017-04-12T11:28:51Z</time></trkpt><trkpt lat="51.9907944929" lon="-2.1622088179"><ele>15.52</ele><time>2017-04-12T11:28:53Z</time></trkpt><trkpt lat="51.9908013660" lon="-2.1623059642"><ele>14.08</ele><time>2017-04-12T11:29:08Z</time></trkpt><trkpt lat="51.9908083230" lon="-2.1623052936"><ele>11.19</ele><time>2017-04-12T11:29:19Z</time></trkpt><trkpt lat="51.9908093289" lon="-2.1623044554"><ele>15.52</ele><time>2017-04-12T11:29:20Z</time></trkpt><trkpt lat="51.9908108376" lon="-2.1623030305"><ele>15.04</ele><time>2017-04-12T11:29:25Z</time></trkpt></trkseg></trk></gpx>